sensor_id;sensor_type;location;lat;lon;timestamp;pressure;altitude;pressure_sealevel;temperature;humidity
63535;BME280;55128;50.230;18.944;2023-03-14T00:04:04;96968.09;;;10.61;51.80
63535;BME280;55128;50.230;18.944;2023-03-14T00:09:04;96940.53;;;10.50;51.70
63535;BME280;55128;50.230;18.944;2023-03-14T00:14:04;96928.56;;;10.69;51.52
63535;BME280;55128;50.230;18.944;2023-03-14T00:19:05;96897.69;;;10.68;51.76
63535;BME280;55128;50.230;18.944;2023-03-14T00:24:06;96876.38;;;10.81;51.02
63535;BME280;55128;50.230;18.944;2023-03-14T00:29:07;96866.06;;;10.65;51.58
63535;BME280;55128;50.230;18.944;2023-03-14T00:34:07;96853.34;;;10.81;51.29
63535;BME280;55128;50.230;18.944;2023-03-14T00:39:07;96857.31;;;10.76;51.40
63535;BME280;55128;50.230;18.944;2023-03-14T00:44:08;96833.66;;;10.73;51.70
63535;BME280;55128;50.230;18.944;2023-03-14T00:49:08;96815.91;;;10.73;51.46
63535;BME280;55128;50.230;18.944;2023-03-14T00:54:08;96819.16;;;10.77;51.60
63535;BME280;55128;50.230;18.944;2023-03-14T00:59:09;96804.53;;;10.60;52.10
63535;BME280;55128;50.230;18.944;2023-03-14T01:04:10;96804.06;;;10.66;51.76
63535;BME280;55128;50.230;18.944;2023-03-14T01:09:10;96807.81;;;10.63;51.87
63535;BME280;55128;50.230;18.944;2023-03-14T01:14:10;96807.06;;;10.61;51.55
63535;BME280;55128;50.230;18.944;2023-03-14T01:19:11;96787.91;;;10.69;51.42
63535;BME280;55128;50.230;18.944;2023-03-14T01:24:11;96758.25;;;10.75;51.34
63535;BME280;55128;50.230;18.944;2023-03-14T01:29:12;96733.19;;;10.79;50.90
63535;BME280;55128;50.230;18.944;2023-03-14T01:34:12;96726.16;;;10.78;50.72
63535;BME280;55128;50.230;18.944;2023-03-14T01:39:13;96717.38;;;10.89;50.50
63535;BME280;55128;50.230;18.944;2023-03-14T01:44:13;96709.66;;;10.86;50.37
63535;BME280;55128;50.230;18.944;2023-03-14T01:49:29;96701.19;;;10.92;50.70
63535;BME280;55128;50.230;18.944;2023-03-14T01:54:41;96697.09;;;10.77;51.18
63535;BME280;55128;50.230;18.944;2023-03-14T01:59:49;96699.84;;;10.75;50.95
63535;BME280;55128;50.230;18.944;2023-03-14T02:04:52;96715.53;;;10.67;51.34
63535;BME280;55128;50.230;18.944;2023-03-14T02:09:54;96720.34;;;10.62;50.68
63535;BME280;55128;50.230;18.944;2023-03-14T02:14:56;96727.59;;;10.60;51.44
63535;BME280;55128;50.230;18.944;2023-03-14T02:30:38;96711.88;;;10.10;53.62
63535;BME280;55128;50.230;18.944;2023-03-14T02:35:45;96704.38;;;9.80;54.08
63535;BME280;55128;50.230;18.944;2023-03-14T02:40:47;96687.22;;;9.61;54.87
63535;BME280;55128;50.230;18.944;2023-03-14T02:45:49;96688.78;;;9.40;55.48
63535;BME280;55128;50.230;18.944;2023-03-14T02:50:53;96704.72;;;9.14;57.02
63535;BME280;55128;50.230;18.944;2023-03-14T02:55:54;96706.69;;;8.99;57.92
63535;BME280;55128;50.230;18.944;2023-03-14T03:00:55;96704.16;;;8.98;57.31
63535;BME280;55128;50.230;18.944;2023-03-14T03:05:56;96708.91;;;8.80;57.96
63535;BME280;55128;50.230;18.944;2023-03-14T03:10:57;96700.78;;;8.70;58.41
63535;BME280;55128;50.230;18.944;2023-03-14T03:15:57;96690.31;;;8.43;59.43
63535;BME280;55128;50.230;18.944;2023-03-14T03:21:03;96697.59;;;8.39;60.07
63535;BME280;55128;50.230;18.944;2023-03-14T03:26:04;96684.19;;;8.81;58.26
63535;BME280;55128;50.230;18.944;2023-03-14T03:31:11;96700.97;;;8.92;58.07
63535;BME280;55128;50.230;18.944;2023-03-14T03:36:12;96755.34;;;9.22;56.77
63535;BME280;55128;50.230;18.944;2023-03-14T03:41:12;96761.97;;;9.41;55.96
63535;BME280;55128;50.230;18.944;2023-03-14T03:46:12;96768.81;;;9.56;55.56
63535;BME280;55128;50.230;18.944;2023-03-14T03:51:14;96769.06;;;9.77;55.02
63535;BME280;55128;50.230;18.944;2023-03-14T03:56:15;96770.59;;;10.17;53.56
63535;BME280;55128;50.230;18.944;2023-03-14T04:01:15;96766.31;;;10.27;53.70
63535;BME280;55128;50.230;18.944;2023-03-14T04:06:16;96757.06;;;10.33;53.48
63535;BME280;55128;50.230;18.944;2023-03-14T04:11:16;96750.91;;;10.32;53.60
63535;BME280;55128;50.230;18.944;2023-03-14T04:16:22;96753.47;;;10.21;54.01
63535;BME280;55128;50.230;18.944;2023-03-14T04:21:23;96743.56;;;10.11;53.74
63535;BME280;55128;50.230;18.944;2023-03-14T04:26:24;96740.66;;;10.03;54.35
63535;BME280;55128;50.230;18.944;2023-03-14T04:31:24;96739.50;;;9.95;54.70
63535;BME280;55128;50.230;18.944;2023-03-14T04:36:24;96723.84;;;9.91;54.26
63535;BME280;55128;50.230;18.944;2023-03-14T04:41:25;96705.88;;;9.84;55.05
63535;BME280;55128;50.230;18.944;2023-03-14T04:46:25;96686.75;;;9.91;54.93
63535;BME280;55128;50.230;18.944;2023-03-14T04:51:26;96679.16;;;9.98;54.30
63535;BME280;55128;50.230;18.944;2023-03-14T04:56:27;96674.81;;;10.21;53.42
63535;BME280;55128;50.230;18.944;2023-03-14T05:01:27;96688.13;;;10.33;52.85
63535;BME280;55128;50.230;18.944;2023-03-14T05:06:28;96682.16;;;10.29;53.12
63535;BME280;55128;50.230;18.944;2023-03-14T05:11:28;96672.94;;;10.35;52.73
63535;BME280;55128;50.230;18.944;2023-03-14T05:16:29;96676.56;;;10.45;52.53
63535;BME280;55128;50.230;18.944;2023-03-14T05:21:29;96667.78;;;10.56;52.47
63535;BME280;55128;50.230;18.944;2023-03-14T05:26:30;96647.28;;;10.69;51.73
63535;BME280;55128;50.230;18.944;2023-03-14T05:31:30;96642.69;;;10.82;51.51
63535;BME280;55128;50.230;18.944;2023-03-14T05:36:30;96647.75;;;10.85;51.43
63535;BME280;55128;50.230;18.944;2023-03-14T05:41:31;96655.44;;;11.00;50.76
63535;BME280;55128;50.230;18.944;2023-03-14T05:46:31;96659.94;;;10.99;51.48
63535;BME280;55128;50.230;18.944;2023-03-14T05:51:32;96655.47;;;11.22;51.06
63535;BME280;55128;50.230;18.944;2023-03-14T05:56:32;96632.38;;;11.23;50.86
63535;BME280;55128;50.230;18.944;2023-03-14T06:01:33;96619.50;;;11.07;51.61
63535;BME280;55128;50.230;18.944;2023-03-14T06:06:34;96619.00;;;11.24;50.89
63535;BME280;55128;50.230;18.944;2023-03-14T06:11:34;96620.38;;;11.40;50.12
63535;BME280;55128;50.230;18.944;2023-03-14T06:16:34;96629.34;;;11.60;50.61
63535;BME280;55128;50.230;18.944;2023-03-14T06:21:35;96617.00;;;11.70;49.84
63535;BME280;55128;50.230;18.944;2023-03-14T06:26:35;96601.81;;;11.61;49.82
63535;BME280;55128;50.230;18.944;2023-03-14T06:31:35;96592.09;;;11.50;50.69
63535;BME280;55128;50.230;18.944;2023-03-14T06:36:36;96578.91;;;11.81;50.19
63535;BME280;55128;50.230;18.944;2023-03-14T06:41:36;96581.19;;;12.06;49.41
63535;BME280;55128;50.230;18.944;2023-03-14T06:46:36;96580.47;;;12.04;49.17
63535;BME280;55128;50.230;18.944;2023-03-14T06:51:37;96575.88;;;12.58;47.94
63535;BME280;55128;50.230;18.944;2023-03-14T06:56:37;96570.34;;;12.81;48.28
63535;BME280;55128;50.230;18.944;2023-03-14T07:01:37;96551.69;;;12.81;47.63
63535;BME280;55128;50.230;18.944;2023-03-14T07:06:38;96561.66;;;12.89;47.02
63535;BME280;55128;50.230;18.944;2023-03-14T07:11:39;96557.81;;;12.62;47.21
63535;BME280;55128;50.230;18.944;2023-03-14T07:16:40;96589.00;;;12.91;46.81
63535;BME280;55128;50.230;18.944;2023-03-14T07:21:40;96583.56;;;13.02;46.53
63535;BME280;55128;50.230;18.944;2023-03-14T07:26:40;96600.72;;;13.29;46.56
63535;BME280;55128;50.230;18.944;2023-03-14T07:31:41;96601.22;;;13.73;45.39
63535;BME280;55128;50.230;18.944;2023-03-14T07:36:41;96613.50;;;14.42;44.71
63535;BME280;55128;50.230;18.944;2023-03-14T07:41:41;96622.66;;;14.87;43.15
63535;BME280;55128;50.230;18.944;2023-03-14T07:46:42;96623.72;;;14.66;43.13
63535;BME280;55128;50.230;18.944;2023-03-14T07:51:42;96622.72;;;15.68;41.82
63535;BME280;55128;50.230;18.944;2023-03-14T07:56:44;96629.22;;;17.92;38.89
63535;BME280;55128;50.230;18.944;2023-03-14T08:01:44;96610.06;;;21.16;34.42
63535;BME280;55128;50.230;18.944;2023-03-14T08:06:44;96629.13;;;20.09;32.58
63535;BME280;55128;50.230;18.944;2023-03-14T08:11:45;96621.34;;;18.48;34.21
63535;BME280;55128;50.230;18.944;2023-03-14T08:16:45;96632.63;;;18.02;36.00
63535;BME280;55128;50.230;18.944;2023-03-14T08:21:46;96647.31;;;17.81;35.78
63535;BME280;55128;50.230;18.944;2023-03-14T08:26:46;96636.16;;;20.10;33.16
63535;BME280;55128;50.230;18.944;2023-03-14T08:31:46;96642.03;;;19.59;34.35
63535;BME280;55128;50.230;18.944;2023-03-14T08:36:48;96642.34;;;21.09;31.55
63535;BME280;55128;50.230;18.944;2023-03-14T08:41:50;96640.81;;;22.39;29.43
63535;BME280;55128;50.230;18.944;2023-03-14T08:46:50;96657.31;;;20.21;31.77
63535;BME280;55128;50.230;18.944;2023-03-14T08:51:50;96640.13;;;18.56;34.37
63535;BME280;55128;50.230;18.944;2023-03-14T08:56:51;96640.66;;;17.35;36.71
63535;BME280;55128;50.230;18.944;2023-03-14T09:01:51;96642.72;;;16.54;38.82
63535;BME280;55128;50.230;18.944;2023-03-14T09:06:52;96648.81;;;16.64;38.90
63535;BME280;55128;50.230;18.944;2023-03-14T09:11:52;96659.75;;;16.97;39.21
63535;BME280;55128;50.230;18.944;2023-03-14T09:16:53;96682.00;;;16.71;38.77
63535;BME280;55128;50.230;18.944;2023-03-14T09:21:54;96658.63;;;16.29;39.84
63535;BME280;55128;50.230;18.944;2023-03-14T09:26:55;96680.03;;;16.11;40.50
63535;BME280;55128;50.230;18.944;2023-03-14T09:31:57;96652.03;;;16.24;40.78
63535;BME280;55128;50.230;18.944;2023-03-14T09:37:00;96655.44;;;17.04;39.95
63535;BME280;55128;50.230;18.944;2023-03-14T09:42:03;96656.06;;;17.83;38.24
63535;BME280;55128;50.230;18.944;2023-03-14T09:47:07;96661.22;;;19.56;35.56
63535;BME280;55128;50.230;18.944;2023-03-14T09:52:35;96664.31;;;20.07;33.61
63535;BME280;55128;50.230;18.944;2023-03-14T09:57:35;96662.78;;;20.74;32.89
63535;BME280;55128;50.230;18.944;2023-03-14T10:02:35;96696.44;;;20.55;32.88
63535;BME280;55128;50.230;18.944;2023-03-14T10:07:36;96678.44;;;20.09;33.77
63535;BME280;55128;50.230;18.944;2023-03-14T10:12:37;96692.88;;;18.65;35.12
63535;BME280;55128;50.230;18.944;2023-03-14T10:18:02;96696.53;;;17.47;38.25
63535;BME280;55128;50.230;18.944;2023-03-14T10:23:05;96713.47;;;16.87;39.48
63535;BME280;55128;50.230;18.944;2023-03-14T10:28:31;96710.25;;;16.22;40.98
63535;BME280;55128;50.230;18.944;2023-03-14T10:33:34;96713.31;;;16.09;41.67
63535;BME280;55128;50.230;18.944;2023-03-14T10:38:42;96716.66;;;15.75;42.68
63535;BME280;55128;50.230;18.944;2023-03-14T10:43:53;96712.53;;;15.71;43.23
63535;BME280;55128;50.230;18.944;2023-03-14T10:48:57;96702.41;;;15.47;43.74
63535;BME280;55128;50.230;18.944;2023-03-14T10:54:39;96697.34;;;15.44;43.93
63535;BME280;55128;50.230;18.944;2023-03-14T11:00:20;96704.19;;;15.28;44.74
63535;BME280;55128;50.230;18.944;2023-03-14T11:05:30;96703.66;;;15.25;44.71
63535;BME280;55128;50.230;18.944;2023-03-14T11:10:37;96698.63;;;15.12;45.47
63535;BME280;55128;50.230;18.944;2023-03-14T11:15:49;96697.09;;;15.00;45.70
63535;BME280;55128;50.230;18.944;2023-03-14T11:20:55;96703.69;;;14.58;49.29
63535;BME280;55128;50.230;18.944;2023-03-14T11:26:41;96703.00;;;14.27;50.17
63535;BME280;55128;50.230;18.944;2023-03-14T11:31:44;96690.34;;;13.90;50.37
63535;BME280;55128;50.230;18.944;2023-03-14T11:36:53;96708.13;;;13.60;51.86
63535;BME280;55128;50.230;18.944;2023-03-14T11:41:58;96717.34;;;13.96;50.88
63535;BME280;55128;50.230;18.944;2023-03-14T11:52:58;96701.16;;;13.78;50.60
63535;BME280;55128;50.230;18.944;2023-03-14T11:57:33;96693.16;;;13.78;50.92
63535;BME280;55128;50.230;18.944;2023-03-14T12:13:01;96672.78;;;13.77;50.61
63535;BME280;55128;50.230;18.944;2023-03-14T12:18:02;96670.03;;;13.98;49.95
63535;BME280;55128;50.230;18.944;2023-03-14T12:23:10;96657.22;;;13.83;50.41
63535;BME280;55128;50.230;18.944;2023-03-14T12:28:30;96660.47;;;13.76;50.46
63535;BME280;55128;50.230;18.944;2023-03-14T12:33:32;96671.81;;;13.88;50.44
63535;BME280;55128;50.230;18.944;2023-03-14T12:43:36;96650.34;;;13.80;52.27
63535;BME280;55128;50.230;18.944;2023-03-14T12:48:38;96651.06;;;13.82;52.39
63535;BME280;55128;50.230;18.944;2023-03-14T12:54:02;96652.44;;;13.86;52.68
63535;BME280;55128;50.230;18.944;2023-03-14T13:04:15;96668.41;;;13.57;54.43
63535;BME280;55128;50.230;18.944;2023-03-14T13:14:28;96657.59;;;13.39;56.33
63535;BME280;55128;50.230;18.944;2023-03-14T13:19:30;96661.66;;;13.33;56.36
63535;BME280;55128;50.230;18.944;2023-03-14T13:24:35;96661.66;;;13.33;57.73
63535;BME280;55128;50.230;18.944;2023-03-14T13:29:35;96678.34;;;13.45;57.36
63535;BME280;55128;50.230;18.944;2023-03-14T13:34:36;96682.13;;;13.33;57.86
63535;BME280;55128;50.230;18.944;2023-03-14T13:39:39;96686.53;;;13.22;58.13
63535;BME280;55128;50.230;18.944;2023-03-14T13:44:40;96680.16;;;13.04;59.06
63535;BME280;55128;50.230;18.944;2023-03-14T13:49:40;96685.09;;;13.09;59.49
63535;BME280;55128;50.230;18.944;2023-03-14T13:54:41;96694.56;;;12.92;59.88
63535;BME280;55128;50.230;18.944;2023-03-14T13:59:41;96690.50;;;12.67;60.91
63535;BME280;55128;50.230;18.944;2023-03-14T14:04:42;96698.06;;;12.61;62.56
63535;BME280;55128;50.230;18.944;2023-03-14T14:09:50;96694.59;;;12.50;63.64
63535;BME280;55128;50.230;18.944;2023-03-14T14:20:33;96685.44;;;12.00;66.78
63535;BME280;55128;50.230;18.944;2023-03-14T14:25:35;96675.13;;;12.07;67.01
63535;BME280;55128;50.230;18.944;2023-03-14T14:30:36;96649.81;;;11.92;67.43
63535;BME280;55128;50.230;18.944;2023-03-14T14:35:36;96646.97;;;12.04;68.11
63535;BME280;55128;50.230;18.944;2023-03-14T14:40:43;96640.75;;;11.94;68.25
63535;BME280;55128;50.230;18.944;2023-03-14T14:45:46;96638.50;;;12.11;67.49
63535;BME280;55128;50.230;18.944;2023-03-14T14:55:51;96646.00;;;12.27;67.01
63535;BME280;55128;50.230;18.944;2023-03-14T15:00:58;96643.41;;;12.36;66.37
63535;BME280;55128;50.230;18.944;2023-03-14T15:05:59;96641.16;;;12.11;66.94
63535;BME280;55128;50.230;18.944;2023-03-14T15:10:59;96647.03;;;11.93;67.65
63535;BME280;55128;50.230;18.944;2023-03-14T15:16:00;96655.47;;;11.98;67.31
63535;BME280;55128;50.230;18.944;2023-03-14T15:21:00;96643.47;;;12.04;66.68
63535;BME280;55128;50.230;18.944;2023-03-14T15:26:01;96639.53;;;11.87;67.58
63535;BME280;55128;50.230;18.944;2023-03-14T15:31:01;96646.22;;;11.49;68.57
63535;BME280;55128;50.230;18.944;2023-03-14T15:36:03;96636.50;;;11.59;68.50
63535;BME280;55128;50.230;18.944;2023-03-14T15:41:03;96619.50;;;11.83;68.02
63535;BME280;55128;50.230;18.944;2023-03-14T15:46:04;96606.63;;;11.67;68.00
63535;BME280;55128;50.230;18.944;2023-03-14T15:51:06;96601.25;;;11.57;67.96
63535;BME280;55128;50.230;18.944;2023-03-14T15:56:19;96584.78;;;11.63;67.90
63535;BME280;55128;50.230;18.944;2023-03-14T16:01:20;96559.19;;;11.62;67.78
63535;BME280;55128;50.230;18.944;2023-03-14T16:06:20;96580.63;;;11.50;67.82
63535;BME280;55128;50.230;18.944;2023-03-14T16:11:20;96597.78;;;11.45;67.52
63535;BME280;55128;50.230;18.944;2023-03-14T16:16:21;96595.72;;;11.49;67.67
63535;BME280;55128;50.230;18.944;2023-03-14T16:21:22;96612.59;;;11.59;67.20
63535;BME280;55128;50.230;18.944;2023-03-14T16:26:22;96630.19;;;11.72;66.66
63535;BME280;55128;50.230;18.944;2023-03-14T16:31:24;96647.72;;;11.63;66.97
63535;BME280;55128;50.230;18.944;2023-03-14T16:36:25;96647.16;;;11.80;66.44
63535;BME280;55128;50.230;18.944;2023-03-14T16:41:25;96661.63;;;11.55;67.08
63535;BME280;55128;50.230;18.944;2023-03-14T16:46:30;96665.72;;;11.59;67.29
63535;BME280;55128;50.230;18.944;2023-03-14T16:51:31;96662.28;;;11.47;68.08
63535;BME280;55128;50.230;18.944;2023-03-14T16:56:32;96649.88;;;11.25;67.96
63535;BME280;55128;50.230;18.944;2023-03-14T17:01:32;96646.78;;;10.98;68.66
63535;BME280;55128;50.230;18.944;2023-03-14T17:06:33;96645.22;;;10.95;69.08
63535;BME280;55128;50.230;18.944;2023-03-14T17:11:34;96658.97;;;10.89;69.38
63535;BME280;55128;50.230;18.944;2023-03-14T17:16:36;96666.84;;;10.79;69.54
63535;BME280;55128;50.230;18.944;2023-03-14T17:21:36;96668.63;;;10.67;70.15
63535;BME280;55128;50.230;18.944;2023-03-14T17:26:36;96684.41;;;10.58;70.60
63535;BME280;55128;50.230;18.944;2023-03-14T17:31:37;96668.47;;;10.46;70.60
63535;BME280;55128;50.230;18.944;2023-03-14T17:36:38;96669.69;;;10.54;70.14
63535;BME280;55128;50.230;18.944;2023-03-14T17:41:39;96674.72;;;10.34;70.55
63535;BME280;55128;50.230;18.944;2023-03-14T17:46:39;96676.41;;;10.35;70.37
63535;BME280;55128;50.230;18.944;2023-03-14T17:51:40;96672.97;;;10.10;70.96
63535;BME280;55128;50.230;18.944;2023-03-14T17:56:40;96667.16;;;10.05;70.66
63535;BME280;55128;50.230;18.944;2023-03-14T18:01:43;96679.31;;;9.97;70.68
63535;BME280;55128;50.230;18.944;2023-03-14T18:06:43;96693.16;;;10.00;70.78
63535;BME280;55128;50.230;18.944;2023-03-14T18:11:44;96698.31;;;9.90;70.26
63535;BME280;55128;50.230;18.944;2023-03-14T18:16:44;96710.00;;;9.88;70.57
63535;BME280;55128;50.230;18.944;2023-03-14T18:21:48;96716.53;;;9.95;70.34
63535;BME280;55128;50.230;18.944;2023-03-14T18:26:50;96721.88;;;9.82;70.68
63535;BME280;55128;50.230;18.944;2023-03-14T18:31:52;96719.34;;;9.81;71.11
63535;BME280;55128;50.230;18.944;2023-03-14T18:36:54;96737.09;;;9.91;70.54
63535;BME280;55128;50.230;18.944;2023-03-14T18:41:54;96737.00;;;9.93;70.23
63535;BME280;55128;50.230;18.944;2023-03-14T18:46:55;96728.81;;;9.96;70.21
63535;BME280;55128;50.230;18.944;2023-03-14T18:51:55;96728.81;;;9.96;70.19
63535;BME280;55128;50.230;18.944;2023-03-14T18:56:56;96734.03;;;10.09;69.58
63535;BME280;55128;50.230;18.944;2023-03-14T19:02:00;96744.31;;;10.14;69.34
63535;BME280;55128;50.230;18.944;2023-03-14T19:07:00;96745.25;;;10.12;69.12
63535;BME280;55128;50.230;18.944;2023-03-14T19:12:01;96733.25;;;10.20;68.18
63535;BME280;55128;50.230;18.944;2023-03-14T19:17:01;96743.81;;;10.08;68.03
63535;BME280;55128;50.230;18.944;2023-03-14T19:22:02;96744.75;;;10.07;67.72
63535;BME280;55128;50.230;18.944;2023-03-14T19:27:03;96747.03;;;10.01;68.25
63535;BME280;55128;50.230;18.944;2023-03-14T19:32:04;96751.16;;;10.05;68.03
63535;BME280;55128;50.230;18.944;2023-03-14T19:37:04;96747.09;;;9.88;68.35
63535;BME280;55128;50.230;18.944;2023-03-14T19:42:06;96756.44;;;9.81;68.47
63535;BME280;55128;50.230;18.944;2023-03-14T19:47:06;96751.59;;;9.75;69.07
63535;BME280;55128;50.230;18.944;2023-03-14T19:52:07;96740.59;;;9.68;68.88
63535;BME280;55128;50.230;18.944;2023-03-14T19:57:07;96757.66;;;9.64;68.62
63535;BME280;55128;50.230;18.944;2023-03-14T20:02:12;96763.31;;;9.59;69.15
63535;BME280;55128;50.230;18.944;2023-03-14T20:07:13;96771.69;;;9.53;68.67
63535;BME280;55128;50.230;18.944;2023-03-14T20:12:13;96769.56;;;9.58;68.75
63535;BME280;55128;50.230;18.944;2023-03-14T20:17:14;96763.69;;;9.66;67.97
63535;BME280;55128;50.230;18.944;2023-03-14T20:22:14;96776.28;;;9.75;67.53
63535;BME280;55128;50.230;18.944;2023-03-14T20:27:14;96769.16;;;9.76;67.08
63535;BME280;55128;50.230;18.944;2023-03-14T20:32:15;96771.72;;;9.77;67.66
63535;BME280;55128;50.230;18.944;2023-03-14T20:37:17;96775.44;;;9.75;67.15
63535;BME280;55128;50.230;18.944;2023-03-14T20:42:17;96783.81;;;9.68;67.13
63535;BME280;55128;50.230;18.944;2023-03-14T20:47:18;96778.16;;;9.49;67.84
63535;BME280;55128;50.230;18.944;2023-03-14T20:52:18;96790.22;;;9.53;68.23
63535;BME280;55128;50.230;18.944;2023-03-14T20:57:19;96797.88;;;9.45;68.11
63535;BME280;55128;50.230;18.944;2023-03-14T21:02:19;96794.81;;;9.38;68.30
63535;BME280;55128;50.230;18.944;2023-03-14T21:07:19;96793.88;;;9.39;68.08
63535;BME280;55128;50.230;18.944;2023-03-14T21:12:20;96794.94;;;9.24;68.87
63535;BME280;55128;50.230;18.944;2023-03-14T21:17:20;96793.25;;;9.23;69.18
63535;BME280;55128;50.230;18.944;2023-03-14T21:22:20;96800.88;;;9.27;69.13
63535;BME280;55128;50.230;18.944;2023-03-14T21:27:21;96794.00;;;9.12;69.42
63535;BME280;55128;50.230;18.944;2023-03-14T21:32:22;96808.41;;;9.21;69.02
63535;BME280;55128;50.230;18.944;2023-03-14T21:37:22;96822.81;;;9.29;69.22
63535;BME280;55128;50.230;18.944;2023-03-14T21:42:26;96828.38;;;9.38;69.16
63535;BME280;55128;50.230;18.944;2023-03-14T21:47:27;96823.28;;;9.47;68.87
63535;BME280;55128;50.230;18.944;2023-03-14T21:52:27;96825.84;;;9.49;69.08
63535;BME280;55128;50.230;18.944;2023-03-14T21:57:28;96822.44;;;9.60;68.60
63535;BME280;55128;50.230;18.944;2023-03-14T22:02:29;96814.38;;;9.61;68.42
63535;BME280;55128;50.230;18.944;2023-03-14T22:07:29;96820.91;;;9.68;68.41
63535;BME280;55128;50.230;18.944;2023-03-14T22:12:29;96839.34;;;9.70;68.14
63535;BME280;55128;50.230;18.944;2023-03-14T22:17:30;96855.66;;;9.77;68.05
63535;BME280;55128;50.230;18.944;2023-03-14T22:22:31;96873.78;;;9.83;67.86
63535;BME280;55128;50.230;18.944;2023-03-14T22:27:31;96894.13;;;9.82;67.98
63535;BME280;55128;50.230;18.944;2023-03-14T22:32:31;96930.47;;;9.93;68.21
63535;BME280;55128;50.230;18.944;2023-03-14T22:37:32;96970.66;;;9.87;68.54
63535;BME280;55128;50.230;18.944;2023-03-14T22:42:32;97019.28;;;8.80;65.26
63535;BME280;55128;50.230;18.944;2023-03-14T22:47:32;97043.53;;;7.88;67.29
63535;BME280;55128;50.230;18.944;2023-03-14T22:52:33;97052.53;;;7.85;67.69
63535;BME280;55128;50.230;18.944;2023-03-14T22:57:33;97065.94;;;7.52;69.06
63535;BME280;55128;50.230;18.944;2023-03-14T23:02:33;97093.78;;;7.11;70.65
63535;BME280;55128;50.230;18.944;2023-03-14T23:07:34;97103.19;;;6.85;70.69
63535;BME280;55128;50.230;18.944;2023-03-14T23:12:34;97094.34;;;6.70;69.04
63535;BME280;55128;50.230;18.944;2023-03-14T23:17:34;97113.78;;;6.68;68.02
63535;BME280;55128;50.230;18.944;2023-03-14T23:22:35;97132.19;;;6.36;67.84
63535;BME280;55128;50.230;18.944;2023-03-14T23:27:35;97149.38;;;6.27;67.91
63535;BME280;55128;50.230;18.944;2023-03-14T23:32:36;97172.56;;;6.03;68.92
63535;BME280;55128;50.230;18.944;2023-03-14T23:37:36;97200.13;;;5.96;69.60
63535;BME280;55128;50.230;18.944;2023-03-14T23:42:37;97212.56;;;5.92;69.62
63535;BME280;55128;50.230;18.944;2023-03-14T23:47:37;97242.53;;;5.72;70.02
63535;BME280;55128;50.230;18.944;2023-03-14T23:52:38;97236.19;;;5.40;70.08
63535;BME280;55128;50.230;18.944;2023-03-14T23:57:38;97265.56;;;5.31;70.45
